CYVM

Qikiqtarjuaq Airport

Qikiqtarjuaq, Canada
TAF CYVM 181838Z 1819/1907 VRB03KT P6SM -SN SCT020 OVC040 TEMPO 1819/1901 3SM -SN OVC020 BECMG 1820/1822 17008KT FM190100 18008KT P6SM -SN OVC030 TEMPO 1901/1906 2SM -SN OVC020 FM190600 18005KT P6SM -SN SCT020 OVC040 TEMPO 1906/1907 5SM -SN BKN020 OVC040 RMK NXT FCST BY 190100Z
Issued Valid From Valid To
Dec-18 @ 18:38 UTC
(5 hours ago)
Dec-18 @ 19:00 UTC
(5 hours ago)
Dec-19 @ 07:00 UTC
(in 7 hours)
Expired Click to View Dec-18 @ 19:00 to Dec-18 @ 20:00
TAF CYVM 181838Z 1819/1907 VRB03KT P6SM -SN SCT020 OVC040
Wind Visibility Clouds Conditions
Variable at 3 knots Greater than 6 miles
  • Scattered at 2,000' AGL
  • Overcast at 4,000' AGL
  • Light Snow
Temporary Dec-18 @ 19:00 to Dec-19 @ 01:00
TEMPO 1819/1901 3SM -SN OVC020
Visibility Clouds Conditions
3 miles
  • Overcast at 2,000' AGL
  • Light Snow
Becoming Dec-18 @ 20:00 to Dec-19 @ 01:00
BECMG 1820/1822 17008KT
Wind Visibility Clouds Conditions
170° at 8 knots Greater than 6 miles
  • Scattered at 2,000' AGL
  • Overcast at 4,000' AGL
  • Light Snow
From Dec-19 @ 01:00 to Dec-19 @ 06:00
FM190100 18008KT P6SM -SN OVC030
Wind Visibility Clouds Conditions
180° at 8 knots Greater than 6 miles
  • Overcast at 3,000' AGL
  • Light Snow
Temporary Dec-19 @ 01:00 to Dec-19 @ 06:00
TEMPO 1901/1906 2SM -SN OVC020
Visibility Clouds Conditions
2 miles
  • Overcast at 2,000' AGL
  • Light Snow
From Dec-19 @ 06:00 to Dec-19 @ 07:00
FM190600 18005KT P6SM -SN SCT020 OVC040
Wind Visibility Clouds Conditions
180° at 5 knots Greater than 6 miles
  • Scattered at 2,000' AGL
  • Overcast at 4,000' AGL
  • Light Snow
Temporary Dec-19 @ 06:00 to Dec-19 @ 07:00
TEMPO 1906/1907 5SM -SN BKN020 OVC040 RMK NXT FCST BY 190100Z
Visibility Clouds Conditions
5 miles
  • Broken at 2,000' AGL
  • Overcast at 4,000' AGL
  • Light Snow
TAF CYVM 181838Z 1819/1907 VRB03KT P6SM -SN SCT020 OVC040 TEMPO 1819/1901 3SM -SN OVC020 BECMG 1820/1822 17008KT FM190100 18008KT P6SM -SN OVC030 TEMPO 1901/1906 2SM -SN OVC020 FM190600 18005KT P6SM -SN SCT020 OVC040 TEMPO 1906/1907 5SM -SN BKN020 OVC040 RMK NXT FCST BY 190100Z
Issued Dec-18 @ 18:38 UTC
(5 hours ago)
Valid From Dec-18 @ 19:00 UTC
(5 hours ago)
Valid To Dec-19 @ 07:00 UTC
(in 7 hours)
Dec-18 @ 19:00 - Dec-18 @ 20:00
Wind Visibility
Variable at 3 knots Greater than 6 miles
Clouds
  • Scattered at 2,000' AGL
  • Overcast at 4,000' AGL
Conditions
  • Light Snow
Temporary Dec-18 @ 19:00 - Dec-19 @ 01:00
Clouds
  • Overcast at 2,000' AGL
Conditions
  • Light Snow
Becoming Dec-18 @ 20:00 - Dec-19 @ 01:00
Wind Visibility
170° at 8 knots Greater than 6 miles
Clouds
  • Scattered at 2,000' AGL
  • Overcast at 4,000' AGL
Conditions
  • Light Snow
From Dec-19 @ 01:00 - Dec-19 @ 06:00
Wind Visibility
180° at 8 knots Greater than 6 miles
Clouds
  • Overcast at 3,000' AGL
Conditions
  • Light Snow
Temporary Dec-19 @ 01:00 - Dec-19 @ 06:00
Clouds
  • Overcast at 2,000' AGL
Conditions
  • Light Snow
From Dec-19 @ 06:00 - Dec-19 @ 07:00
Wind Visibility
180° at 5 knots Greater than 6 miles
Clouds
  • Scattered at 2,000' AGL
  • Overcast at 4,000' AGL
Conditions
  • Light Snow
Temporary Dec-19 @ 06:00 - Dec-19 @ 07:00
Clouds
  • Broken at 2,000' AGL
  • Overcast at 4,000' AGL
Conditions
  • Light Snow